sensor_id;sensor_type;location;lat;lon;timestamp;pressure;altitude;pressure_sealevel;temperature;humidity
26443;BME280;5563;52.296;6.806;2023-02-16T00:02:10;102313.44;;;5.92;72.62
26443;BME280;5563;52.296;6.806;2023-02-16T00:05:31;102308.06;;;5.94;72.63
26443;BME280;5563;52.296;6.806;2023-02-16T00:07:59;102299.69;;;5.81;72.47
26443;BME280;5563;52.296;6.806;2023-02-16T00:10:37;102305.69;;;5.86;72.66
26443;BME280;5563;52.296;6.806;2023-02-16T00:13:24;102316.22;;;5.88;72.79
26443;BME280;5563;52.296;6.806;2023-02-16T00:16:20;102295.44;;;5.77;72.47
26443;BME280;5563;52.296;6.806;2023-02-16T00:18:54;102305.88;;;5.80;73.31
26443;BME280;5563;52.296;6.806;2023-02-16T00:21:23;102316.44;;;5.82;73.12
26443;BME280;5563;52.296;6.806;2023-02-16T00:23:56;102291.34;;;5.69;72.96
26443;BME280;5563;52.296;6.806;2023-02-16T00:26:32;102301.66;;;5.76;72.83
26443;BME280;5563;52.296;6.806;2023-02-16T00:29:06;102294.81;;;5.71;73.59
26443;BME280;5563;52.296;6.806;2023-02-16T00:31:32;102278.25;;;5.66;73.32
26443;BME280;5563;52.296;6.806;2023-02-16T00:34:29;102293.06;;;5.70;73.39
26443;BME280;5563;52.296;6.806;2023-02-16T00:36:57;102296.66;;;5.69;73.73
26443;BME280;5563;52.296;6.806;2023-02-16T00:39:31;102288.84;;;5.64;73.70
26443;BME280;5563;52.296;6.806;2023-02-16T00:42:20;102285.38;;;5.64;73.95
26443;BME280;5563;52.296;6.806;2023-02-16T00:44:57;102300.16;;;5.69;73.77
26443;BME280;5563;52.296;6.806;2023-02-16T00:47:39;102288.09;;;5.62;74.16
26443;BME280;5563;52.296;6.806;2023-02-16T00:50:26;102289.16;;;5.57;73.76
26443;BME280;5563;52.296;6.806;2023-02-16T00:52:53;102283.34;;;5.47;73.70
26443;BME280;5563;52.296;6.806;2023-02-16T00:55:28;102293.81;;;5.50;73.80
26443;BME280;5563;52.296;6.806;2023-02-16T00:58:07;102256.72;;;5.28;73.96
26443;BME280;5563;52.296;6.806;2023-02-16T01:00:57;102298.34;;;5.46;74.50
26443;BME280;5563;52.296;6.806;2023-02-16T01:03:39;102289.66;;;5.43;74.38
26443;BME280;5563;52.296;6.806;2023-02-16T01:06:48;102274.13;;;5.34;74.69
26443;BME280;5563;52.296;6.806;2023-02-16T01:09:34;102294.19;;;5.39;74.30
26443;BME280;5563;52.296;6.806;2023-02-16T01:12:26;102293.50;;;5.34;74.66
26443;BME280;5563;52.296;6.806;2023-02-16T01:14:54;102281.50;;;5.26;74.83
26443;BME280;5563;52.296;6.806;2023-02-16T01:17:30;102292.81;;;5.29;74.72
26443;BME280;5563;52.296;6.806;2023-02-16T01:19:57;102286.97;;;5.20;75.18
26443;BME280;5563;52.296;6.806;2023-02-16T01:22:31;102289.69;;;5.18;75.02
26443;BME280;5563;52.296;6.806;2023-02-16T01:24:58;102294.06;;;5.19;74.89
26443;BME280;5563;52.296;6.806;2023-02-16T01:27:36;102287.91;;;5.19;75.46
26443;BME280;5563;52.296;6.806;2023-02-16T01:30:19;102280.19;;;5.13;74.95
26443;BME280;5563;52.296;6.806;2023-02-16T01:32:52;102290.69;;;5.16;75.27
26443;BME280;5563;52.296;6.806;2023-02-16T01:35:23;102282.06;;;5.09;75.37
26443;BME280;5563;52.296;6.806;2023-02-16T01:38:00;102281.19;;;5.10;75.48
26443;BME280;5563;52.296;6.806;2023-02-16T01:43:19;102277.78;;;5.07;75.26
26443;BME280;5563;52.296;6.806;2023-02-16T01:46:11;102276.28;;;5.00;75.47
26443;BME280;5563;52.296;6.806;2023-02-16T01:48:46;102260.84;;;4.88;75.61
26443;BME280;5563;52.296;6.806;2023-02-16T01:51:27;102279.88;;;4.97;75.57
26443;BME280;5563;52.296;6.806;2023-02-16T01:54:39;102274.75;;;4.93;76.04
26443;BME280;5563;52.296;6.806;2023-02-16T02:02:55;102268.81;;;4.86;75.95
26443;BME280;5563;52.296;6.806;2023-02-16T02:06:31;102274.09;;;4.86;76.18
26443;BME280;5563;52.296;6.806;2023-02-16T02:11:49;102246.44;;;4.72;76.09
26443;BME280;5563;52.296;6.806;2023-02-16T02:14:22;102249.78;;;4.77;76.60
26443;BME280;5563;52.296;6.806;2023-02-16T02:16:59;102256.56;;;4.84;76.59
26443;BME280;5563;52.296;6.806;2023-02-16T02:19:27;102252.31;;;4.80;76.33
26443;BME280;5563;52.296;6.806;2023-02-16T02:36:42;102230.25;;;4.81;76.49
26443;BME280;5563;52.296;6.806;2023-02-16T02:39:38;102222.50;;;4.76;76.62
26443;BME280;5563;52.296;6.806;2023-02-16T02:45:13;102220.81;;;4.74;76.34
26443;BME280;5563;52.296;6.806;2023-02-16T02:47:51;102220.03;;;4.70;76.48
26443;BME280;5563;52.296;6.806;2023-02-16T02:50:38;102213.75;;;4.74;76.77
26443;BME280;5563;52.296;6.806;2023-02-16T02:53:13;102216.38;;;4.74;76.42
26443;BME280;5563;52.296;6.806;2023-02-16T02:55:47;102218.16;;;4.74;76.68
26443;BME280;5563;52.296;6.806;2023-02-16T02:58:40;102217.38;;;4.72;76.86
26443;BME280;5563;52.296;6.806;2023-02-16T03:01:42;102220.78;;;4.75;76.53
26443;BME280;5563;52.296;6.806;2023-02-16T03:04:16;102212.94;;;4.72;76.29
26443;BME280;5563;52.296;6.806;2023-02-16T03:06:52;102212.09;;;4.72;76.63
26443;BME280;5563;52.296;6.806;2023-02-16T03:09:35;102212.19;;;4.69;76.47
26443;BME280;5563;52.296;6.806;2023-02-16T03:12:08;102205.25;;;4.66;76.75
26443;BME280;5563;52.296;6.806;2023-02-16T03:15:01;102206.16;;;4.65;76.50
26443;BME280;5563;52.296;6.806;2023-02-16T03:17:34;102209.72;;;4.64;76.79
26443;BME280;5563;52.296;6.806;2023-02-16T03:20:27;102213.38;;;4.60;77.04
26443;BME280;5563;52.296;6.806;2023-02-16T03:23:22;102211.75;;;4.56;76.65
26443;BME280;5563;52.296;6.806;2023-02-16T03:26:07;102209.28;;;4.52;76.71
26443;BME280;5563;52.296;6.806;2023-02-16T03:29:00;102179.84;;;4.37;77.04
26443;BME280;5563;52.296;6.806;2023-02-16T03:31:54;102200.78;;;4.42;77.07
26443;BME280;5563;52.296;6.806;2023-02-16T03:34:23;102201.66;;;4.43;77.13
26443;BME280;5563;52.296;6.806;2023-02-16T03:36:58;102180.03;;;4.31;77.10
26443;BME280;5563;52.296;6.806;2023-02-16T03:39:33;102192.28;;;4.34;77.02
26443;BME280;5563;52.296;6.806;2023-02-16T03:42:29;102181.91;;;4.28;77.42
26443;BME280;5563;52.296;6.806;2023-02-16T03:44:56;102163.69;;;4.20;77.54
26443;BME280;5563;52.296;6.806;2023-02-16T03:47:29;102200.19;;;4.34;77.63
26443;BME280;5563;52.296;6.806;2023-02-16T03:49:56;102201.06;;;4.34;77.27
26443;BME280;5563;52.296;6.806;2023-02-16T03:52:30;102198.50;;;4.31;77.36
26443;BME280;5563;52.296;6.806;2023-02-16T03:54:57;102201.06;;;4.34;77.30
26443;BME280;5563;52.296;6.806;2023-02-16T03:57:23;102185.59;;;4.22;77.86
26443;BME280;5563;52.296;6.806;2023-02-16T04:00:04;102201.91;;;4.35;77.28
26443;BME280;5563;52.296;6.806;2023-02-16T04:02:49;102189.06;;;4.24;77.56
26443;BME280;5563;52.296;6.806;2023-02-16T04:05:16;102204.59;;;4.33;77.63
26443;BME280;5563;52.296;6.806;2023-02-16T04:07:50;102196.03;;;4.27;77.84
26443;BME280;5563;52.296;6.806;2023-02-16T04:10:23;102207.34;;;4.30;77.42
26443;BME280;5563;52.296;6.806;2023-02-16T04:12:50;102201.91;;;4.35;77.46
26443;BME280;5563;52.296;6.806;2023-02-16T04:15:26;102182.06;;;4.23;77.66
26443;BME280;5563;52.296;6.806;2023-02-16T04:17:59;102199.25;;;4.35;77.72
26443;BME280;5563;52.296;6.806;2023-02-16T04:20:34;102190.59;;;4.31;77.74
26443;BME280;5563;52.296;6.806;2023-02-16T04:23:01;102214.00;;;4.42;77.39
26443;BME280;5563;52.296;6.806;2023-02-16T04:25:46;102203.47;;;4.40;77.83
26443;BME280;5563;52.296;6.806;2023-02-16T04:28:13;102173.16;;;4.26;77.71
26443;BME280;5563;52.296;6.806;2023-02-16T04:30:46;102206.81;;;4.46;77.38
26443;BME280;5563;52.296;6.806;2023-02-16T04:33:12;102187.63;;;4.40;77.98
26443;BME280;5563;52.296;6.806;2023-02-16T04:35:49;102208.44;;;4.50;77.73
26443;BME280;5563;52.296;6.806;2023-02-16T04:38:28;102193.72;;;4.43;77.64
26443;BME280;5563;52.296;6.806;2023-02-16T04:41:05;102197.03;;;4.49;77.65
26443;BME280;5563;52.296;6.806;2023-02-16T04:43:49;102179.78;;;4.39;77.81
26443;BME280;5563;52.296;6.806;2023-02-16T04:46:19;102167.69;;;4.32;77.67
26443;BME280;5563;52.296;6.806;2023-02-16T04:49:02;102204.88;;;4.51;77.61
26443;BME280;5563;52.296;6.806;2023-02-16T04:51:39;102190.13;;;4.45;77.46
26443;BME280;5563;52.296;6.806;2023-02-16T04:54:12;102194.81;;;4.37;77.36
26443;BME280;5563;52.296;6.806;2023-02-16T04:56:45;102187.75;;;4.37;77.46
26443;BME280;5563;52.296;6.806;2023-02-16T04:59:19;102201.50;;;4.47;77.54
26443;BME280;5563;52.296;6.806;2023-02-16T05:01:51;102203.13;;;4.51;77.81
26443;BME280;5563;52.296;6.806;2023-02-16T05:04:51;102204.69;;;4.57;77.40
26443;BME280;5563;52.296;6.806;2023-02-16T05:07:18;102198.53;;;4.56;77.37
26443;BME280;5563;52.296;6.806;2023-02-16T05:09:52;102201.09;;;4.59;77.21
26443;BME280;5563;52.296;6.806;2023-02-16T05:12:19;102196.66;;;4.60;76.99
26443;BME280;5563;52.296;6.806;2023-02-16T05:15:11;102189.78;;;4.54;76.90
26443;BME280;5563;52.296;6.806;2023-02-16T05:17:38;102180.09;;;4.55;77.18
26443;BME280;5563;52.296;6.806;2023-02-16T05:20:11;102198.44;;;4.59;77.14
26443;BME280;5563;52.296;6.806;2023-02-16T05:22:38;102193.97;;;4.61;77.07
26443;BME280;5563;52.296;6.806;2023-02-16T05:25:06;102204.53;;;4.61;76.98
26443;BME280;5563;52.296;6.806;2023-02-16T05:27:52;102189.78;;;4.56;76.92
26443;BME280;5563;52.296;6.806;2023-02-16T05:30:26;102207.06;;;4.64;76.98
26443;BME280;5563;52.296;6.806;2023-02-16T05:32:53;102198.50;;;4.58;77.21
26443;BME280;5563;52.296;6.806;2023-02-16T05:35:26;102178.47;;;4.51;77.03
26443;BME280;5563;52.296;6.806;2023-02-16T05:37:53;102187.13;;;4.56;77.07
26443;BME280;5563;52.296;6.806;2023-02-16T05:40:26;102188.78;;;4.58;77.17
26443;BME280;5563;52.296;6.806;2023-02-16T05:42:59;102188.63;;;4.63;76.93
26443;BME280;5563;52.296;6.806;2023-02-16T05:45:26;102178.13;;;4.61;76.96
26443;BME280;5563;52.296;6.806;2023-02-16T05:48:02;102179.91;;;4.61;77.25
26443;BME280;5563;52.296;6.806;2023-02-16T05:50:32;102173.00;;;4.57;77.21
26443;BME280;5563;52.296;6.806;2023-02-16T05:53:05;102186.75;;;4.66;76.97
26443;BME280;5563;52.296;6.806;2023-02-16T05:55:32;102170.34;;;4.57;76.85
26443;BME280;5563;52.296;6.806;2023-02-16T05:58:05;102183.06;;;4.70;77.29
26443;BME280;5563;52.296;6.806;2023-02-16T06:00:44;102165.63;;;4.66;77.40
26443;BME280;5563;52.296;6.806;2023-02-16T06:03:18;102190.03;;;4.73;77.11
26443;BME280;5563;52.296;6.806;2023-02-16T06:06:07;102175.25;;;4.67;76.79
26443;BME280;5563;52.296;6.806;2023-02-16T06:08:43;102183.06;;;4.70;76.77
26443;BME280;5563;52.296;6.806;2023-02-16T06:11:10;102187.22;;;4.77;77.02
26443;BME280;5563;52.296;6.806;2023-02-16T06:14:10;102156.81;;;4.66;77.02
26443;BME280;5563;52.296;6.806;2023-02-16T06:16:46;102173.09;;;4.78;76.89
26443;BME280;5563;52.296;6.806;2023-02-16T06:19:20;102174.81;;;4.79;76.87
26443;BME280;5563;52.296;6.806;2023-02-16T06:21:53;102167.88;;;4.77;76.92
26443;BME280;5563;52.296;6.806;2023-02-16T06:24:27;102164.53;;;4.72;76.95
26443;BME280;5563;52.296;6.806;2023-02-16T06:26:55;102177.38;;;4.82;76.77
26443;BME280;5563;52.296;6.806;2023-02-16T06:29:28;102178.22;;;4.83;76.50
26443;BME280;5563;52.296;6.806;2023-02-16T06:32:02;102164.47;;;4.73;76.67
26443;BME280;5563;52.296;6.806;2023-02-16T06:34:29;102177.63;;;4.75;76.93
26443;BME280;5563;52.296;6.806;2023-02-16T06:37:06;102198.50;;;4.82;76.70
26443;BME280;5563;52.296;6.806;2023-02-16T06:39:32;102181.94;;;4.77;76.89
26443;BME280;5563;52.296;6.806;2023-02-16T06:42:06;102179.25;;;4.79;76.90
26443;BME280;5563;52.296;6.806;2023-02-16T06:44:32;102169.78;;;4.73;76.80
26443;BME280;5563;52.296;6.806;2023-02-16T06:47:06;102181.84;;;4.80;76.65
26443;BME280;5563;52.296;6.806;2023-02-16T06:49:41;102189.72;;;4.82;76.70
26443;BME280;5563;52.296;6.806;2023-02-16T06:52:15;102186.25;;;4.80;76.89
26443;BME280;5563;52.296;6.806;2023-02-16T06:54:42;102191.34;;;4.84;76.74
26443;BME280;5563;52.296;6.806;2023-02-16T06:57:15;102197.50;;;4.85;77.09
26443;BME280;5563;52.296;6.806;2023-02-16T06:59:42;102169.84;;;4.70;76.69
26443;BME280;5563;52.296;6.806;2023-02-16T07:02:27;102180.03;;;4.81;76.92
26443;BME280;5563;52.296;6.806;2023-02-16T07:05:01;102181.97;;;4.76;77.13
26443;BME280;5563;52.296;6.806;2023-02-16T07:07:29;102183.72;;;4.77;77.12
26443;BME280;5563;52.296;6.806;2023-02-16T07:10:06;102193.16;;;4.84;77.08
26443;BME280;5563;52.296;6.806;2023-02-16T07:12:33;102178.53;;;4.74;76.89
26443;BME280;5563;52.296;6.806;2023-02-16T07:15:08;102160.09;;;4.72;76.96
26443;BME280;5563;52.296;6.806;2023-02-16T07:17:35;102175.47;;;4.86;76.88
26443;BME280;5563;52.296;6.806;2023-02-16T07:20:09;102198.94;;;4.95;77.25
26443;BME280;5563;52.296;6.806;2023-02-16T07:22:38;102206.88;;;4.95;77.02
26443;BME280;5563;52.296;6.806;2023-02-16T07:25:21;102205.88;;;4.97;76.54
26443;BME280;5563;52.296;6.806;2023-02-16T07:27:55;102202.47;;;4.94;76.76
26443;BME280;5563;52.296;6.806;2023-02-16T07:30:29;102197.81;;;5.00;76.74
26443;BME280;5563;52.296;6.806;2023-02-16T07:33:02;102191.84;;;4.95;76.52
26443;BME280;5563;52.296;6.806;2023-02-16T07:35:29;102195.41;;;4.94;76.85
26443;BME280;5563;52.296;6.806;2023-02-16T07:38:07;102187.38;;;4.97;76.96
26443;BME280;5563;52.296;6.806;2023-02-16T07:40:34;102187.16;;;5.03;77.17
26443;BME280;5563;52.296;6.806;2023-02-16T07:43:07;102189.69;;;5.06;76.84
26443;BME280;5563;52.296;6.806;2023-02-16T07:45:34;102193.28;;;5.04;76.57
26443;BME280;5563;52.296;6.806;2023-02-16T07:48:10;102193.25;;;5.05;76.81
26443;BME280;5563;52.296;6.806;2023-02-16T07:50:39;102217.50;;;5.16;76.91
26443;BME280;5563;52.296;6.806;2023-02-16T07:53:14;102213.88;;;5.19;76.93
26443;BME280;5563;52.296;6.806;2023-02-16T07:55:42;102212.19;;;5.18;76.69
26443;BME280;5563;52.296;6.806;2023-02-16T07:58:16;102204.19;;;5.19;76.81
26443;BME280;5563;52.296;6.806;2023-02-16T08:01:08;102214.50;;;5.25;76.81
26443;BME280;5563;52.296;6.806;2023-02-16T08:03:41;102214.41;;;5.28;76.58
26443;BME280;5563;52.296;6.806;2023-02-16T08:06:21;102218.72;;;5.31;76.57
26443;BME280;5563;52.296;6.806;2023-02-16T08:09:05;102212.56;;;5.30;76.57
26443;BME280;5563;52.296;6.806;2023-02-16T08:11:34;102219.53;;;5.33;76.50
26443;BME280;5563;52.296;6.806;2023-02-16T08:14:07;102213.53;;;5.28;76.67
26443;BME280;5563;52.296;6.806;2023-02-16T08:16:34;102222.09;;;5.34;76.25
26443;BME280;5563;52.296;6.806;2023-02-16T08:19:08;102234.31;;;5.38;76.09
26443;BME280;5563;52.296;6.806;2023-02-16T08:21:36;102236.81;;;5.41;76.18
26443;BME280;5563;52.296;6.806;2023-02-16T08:24:14;102236.75;;;5.43;76.54
26443;BME280;5563;52.296;6.806;2023-02-16T08:26:49;102223.72;;;5.38;76.37
26443;BME280;5563;52.296;6.806;2023-02-16T08:29:25;102223.44;;;5.46;76.00
26443;BME280;5563;52.296;6.806;2023-02-16T08:31:58;102230.44;;;5.47;76.25
26443;BME280;5563;52.296;6.806;2023-02-16T08:34:31;102222.56;;;5.45;75.95
26443;BME280;5563;52.296;6.806;2023-02-16T08:37:11;102234.84;;;5.48;76.34
26443;BME280;5563;52.296;6.806;2023-02-16T08:39:38;102230.31;;;5.50;76.23
26443;BME280;5563;52.296;6.806;2023-02-16T08:42:11;102237.22;;;5.54;76.08
26443;BME280;5563;52.296;6.806;2023-02-16T08:44:38;102225.91;;;5.50;75.77
26443;BME280;5563;52.296;6.806;2023-02-16T08:47:12;102232.69;;;5.58;75.98
26443;BME280;5563;52.296;6.806;2023-02-16T08:49:43;102231.66;;;5.62;76.09
26443;BME280;5563;52.296;6.806;2023-02-16T08:52:21;102223.09;;;5.55;76.00
26443;BME280;5563;52.296;6.806;2023-02-16T08:54:47;102241.06;;;5.69;75.54
26443;BME280;5563;52.296;6.806;2023-02-16T08:57:21;102232.41;;;5.65;75.85
26443;BME280;5563;52.296;6.806;2023-02-16T08:59:48;102230.56;;;5.67;75.58
26443;BME280;5563;52.296;6.806;2023-02-16T09:02:47;102233.94;;;5.71;75.96
26443;BME280;5563;52.296;6.806;2023-02-16T09:05:49;102226.00;;;5.71;75.61
26443;BME280;5563;52.296;6.806;2023-02-16T09:08:32;102224.09;;;5.74;75.46
26443;BME280;5563;52.296;6.806;2023-02-16T09:11:07;102233.44;;;5.84;75.44
26443;BME280;5563;52.296;6.806;2023-02-16T09:13:35;102223.06;;;5.78;75.50
26443;BME280;5563;52.296;6.806;2023-02-16T09:16:19;102241.09;;;5.92;75.24
26443;BME280;5563;52.296;6.806;2023-02-16T09:19:06;102251.47;;;5.96;75.44
26443;BME280;5563;52.296;6.806;2023-02-16T09:21:33;102236.53;;;5.95;75.04
26443;BME280;5563;52.296;6.806;2023-02-16T09:24:03;102251.41;;;5.98;75.19
26443;BME280;5563;52.296;6.806;2023-02-16T09:26:49;102240.88;;;5.96;75.08
26443;BME280;5563;52.296;6.806;2023-02-16T09:29:46;102214.91;;;5.84;75.41
26443;BME280;5563;52.296;6.806;2023-02-16T09:32:19;102236.34;;;6.00;75.58
26443;BME280;5563;52.296;6.806;2023-02-16T09:34:52;102240.53;;;6.05;75.30
26443;BME280;5563;52.296;6.806;2023-02-16T09:37:26;102240.47;;;6.07;75.29
26443;BME280;5563;52.296;6.806;2023-02-16T09:39:55;102236.28;;;6.01;75.22
26443;BME280;5563;52.296;6.806;2023-02-16T09:45:14;102246.63;;;6.07;75.62
26443;BME280;5563;52.296;6.806;2023-02-16T09:47:52;102257.97;;;6.11;75.38
26443;BME280;5563;52.296;6.806;2023-02-16T09:50:26;102255.25;;;6.12;75.66
26443;BME280;5563;52.296;6.806;2023-02-16T09:53:23;102259.50;;;6.16;75.52
26443;BME280;5563;52.296;6.806;2023-02-16T09:58:57;102257.47;;;6.23;75.30
26443;BME280;5563;52.296;6.806;2023-02-16T10:01:38;102260.00;;;6.26;75.55
26443;BME280;5563;52.296;6.806;2023-02-16T10:07:27;102270.34;;;6.32;75.34
26443;BME280;5563;52.296;6.806;2023-02-16T10:10:11;102271.19;;;6.32;75.26
26443;BME280;5563;52.296;6.806;2023-02-16T10:12:48;102264.97;;;6.33;75.46
26443;BME280;5563;52.296;6.806;2023-02-16T10:15:28;102256.19;;;6.33;75.39
26443;BME280;5563;52.296;6.806;2023-02-16T10:18:15;102259.44;;;6.39;75.84
26443;BME280;5563;52.296;6.806;2023-02-16T10:20:53;102262.06;;;6.39;75.70
26443;BME280;5563;52.296;6.806;2023-02-16T10:23:53;102268.13;;;6.43;75.69
26443;BME280;5563;52.296;6.806;2023-02-16T10:26:37;102229.94;;;6.27;75.60
26443;BME280;5563;52.296;6.806;2023-02-16T10:29:17;102247.84;;;6.42;75.73
26443;BME280;5563;52.296;6.806;2023-02-16T10:34:51;102246.59;;;6.50;75.82
26443;BME280;5563;52.296;6.806;2023-02-16T10:45:53;102246.69;;;6.49;78.14
26443;BME280;5563;52.296;6.806;2023-02-16T10:48:28;102234.41;;;6.46;78.20
26443;BME280;5563;52.296;6.806;2023-02-16T10:51:05;102233.75;;;6.41;78.19
26443;BME280;5563;52.296;6.806;2023-02-16T10:56:49;102211.97;;;6.35;79.11
26443;BME280;5563;52.296;6.806;2023-02-16T10:59:45;102226.22;;;6.52;79.34
26443;BME280;5563;52.296;6.806;2023-02-16T11:02:40;102234.75;;;6.59;79.55
26443;BME280;5563;52.296;6.806;2023-02-16T11:05:38;102241.44;;;6.68;78.94
26443;BME280;5563;52.296;6.806;2023-02-16T11:08:08;102228.41;;;6.63;79.43
26443;BME280;5563;52.296;6.806;2023-02-16T11:10:49;102243.78;;;6.75;79.40
26443;BME280;5563;52.296;6.806;2023-02-16T11:13:35;102240.34;;;6.73;79.75
26443;BME280;5563;52.296;6.806;2023-02-16T11:16:11;102238.41;;;6.77;79.58
26443;BME280;5563;52.296;6.806;2023-02-16T11:18:54;102247.09;;;6.80;79.96
26443;BME280;5563;52.296;6.806;2023-02-16T11:24:36;102221.78;;;6.73;79.72
26443;BME280;5563;52.296;6.806;2023-02-16T11:27:17;102233.84;;;6.80;79.89
26443;BME280;5563;52.296;6.806;2023-02-16T11:29:57;102238.09;;;6.84;79.89
26443;BME280;5563;52.296;6.806;2023-02-16T11:32:44;102225.75;;;6.83;80.17
26443;BME280;5563;52.296;6.806;2023-02-16T11:35:12;102223.16;;;6.82;80.44
26443;BME280;5563;52.296;6.806;2023-02-16T11:37:48;102222.13;;;6.86;80.73
26443;BME280;5563;52.296;6.806;2023-02-16T11:43:02;102217.69;;;6.86;80.68
26443;BME280;5563;52.296;6.806;2023-02-16T11:45:35;102221.97;;;6.89;81.36
26443;BME280;5563;52.296;6.806;2023-02-16T11:48:13;102231.78;;;6.87;81.54
26443;BME280;5563;52.296;6.806;2023-02-16T11:54:47;102216.53;;;6.72;81.17
26443;BME280;5563;52.296;6.806;2023-02-16T11:57:35;102228.75;;;6.76;81.95
26443;BME280;5563;52.296;6.806;2023-02-16T12:00:23;102242.78;;;6.78;81.84
26443;BME280;5563;52.296;6.806;2023-02-16T12:03:14;102250.88;;;6.75;82.15
26443;BME280;5563;52.296;6.806;2023-02-16T12:17:33;102225.59;;;6.46;83.62
26443;BME280;5563;52.296;6.806;2023-02-16T12:20:39;102231.69;;;6.48;83.43
26443;BME280;5563;52.296;6.806;2023-02-16T12:23:39;102242.34;;;6.46;83.70
26443;BME280;5563;52.296;6.806;2023-02-16T12:43:39;102222.63;;;6.53;85.59
26443;BME280;5563;52.296;6.806;2023-02-16T12:46:49;102200.50;;;6.54;85.50
26443;BME280;5563;52.296;6.806;2023-02-16T12:49:45;102183.59;;;6.57;85.86
26443;BME280;5563;52.296;6.806;2023-02-16T12:52:26;102195.59;;;6.66;85.83
26443;BME280;5563;52.296;6.806;2023-02-16T12:58:09;102181.16;;;6.73;86.52
26443;BME280;5563;52.296;6.806;2023-02-16T13:00:51;102165.13;;;6.76;86.18
26443;BME280;5563;52.296;6.806;2023-02-16T13:03:39;102146.38;;;6.80;86.12
26443;BME280;5563;52.296;6.806;2023-02-16T13:06:28;102155.63;;;6.90;86.27
26443;BME280;5563;52.296;6.806;2023-02-16T13:17:56;102106.00;;;7.66;85.61
26443;BME280;5563;52.296;6.806;2023-02-16T13:20:30;102109.44;;;7.87;84.63
26443;BME280;5563;52.296;6.806;2023-02-16T13:45:37;102086.25;;;8.25;83.04
26443;BME280;5563;52.296;6.806;2023-02-16T13:48:27;102078.94;;;8.30;82.87
26443;BME280;5563;52.296;6.806;2023-02-16T13:51:15;102068.63;;;8.24;82.59
26443;BME280;5563;52.296;6.806;2023-02-16T13:54:01;102084.47;;;8.42;83.07
26443;BME280;5563;52.296;6.806;2023-02-16T13:56:37;102078.50;;;8.54;82.80
26443;BME280;5563;52.296;6.806;2023-02-16T14:01:56;102060.38;;;8.45;82.36
26443;BME280;5563;52.296;6.806;2023-02-16T14:07:30;102066.63;;;8.44;82.81
26443;BME280;5563;52.296;6.806;2023-02-16T14:09:57;102072.63;;;8.48;82.73
26443;BME280;5563;52.296;6.806;2023-02-16T14:12:31;102080.31;;;8.54;82.90
26443;BME280;5563;52.296;6.806;2023-02-16T14:15:18;102073.03;;;8.57;82.39
26443;BME280;5563;52.296;6.806;2023-02-16T14:18:30;102055.06;;;8.45;82.37
26443;BME280;5563;52.296;6.806;2023-02-16T14:21:00;102074.47;;;8.47;82.64
26443;BME280;5563;52.296;6.806;2023-02-16T14:23:34;102072.03;;;8.43;82.87
26443;BME280;5563;52.296;6.806;2023-02-16T14:26:13;102048.06;;;8.27;83.44
26443;BME280;5563;52.296;6.806;2023-02-16T14:28:53;102049.94;;;8.42;83.22
26443;BME280;5563;52.296;6.806;2023-02-16T14:31:22;102007.34;;;8.27;83.42
26443;BME280;5563;52.296;6.806;2023-02-16T14:34:10;102027.28;;;8.35;83.23
26443;BME280;5563;52.296;6.806;2023-02-16T14:37:20;102026.84;;;8.43;83.17
26443;BME280;5563;52.296;6.806;2023-02-16T14:40:20;102015.19;;;8.45;83.14
26443;BME280;5563;52.296;6.806;2023-02-16T14:42:55;102027.22;;;8.52;83.31
26443;BME280;5563;52.296;6.806;2023-02-16T14:46:16;102031.50;;;8.55;83.26
26443;BME280;5563;52.296;6.806;2023-02-16T15:00:49;102021.09;;;8.35;83.52
26443;BME280;5563;52.296;6.806;2023-02-16T15:04:07;102015.09;;;8.31;83.64
26443;BME280;5563;52.296;6.806;2023-02-16T15:06:42;102026.72;;;8.29;83.95
26443;BME280;5563;52.296;6.806;2023-02-16T15:09:24;102017.19;;;8.25;83.72
26443;BME280;5563;52.296;6.806;2023-02-16T15:12:04;102031.16;;;8.28;83.82
26443;BME280;5563;52.296;6.806;2023-02-16T15:15:00;102027.75;;;8.26;83.75
26443;BME280;5563;52.296;6.806;2023-02-16T15:17:40;102033.13;;;8.25;84.54
26443;BME280;5563;52.296;6.806;2023-02-16T15:22:56;102027.81;;;8.25;84.41
26443;BME280;5563;52.296;6.806;2023-02-16T15:25:29;102005.81;;;8.21;84.35
26443;BME280;5563;52.296;6.806;2023-02-16T15:30:59;101997.00;;;8.21;84.48
26443;BME280;5563;52.296;6.806;2023-02-16T15:33:40;102003.66;;;8.29;84.37
26443;BME280;5563;52.296;6.806;2023-02-16T15:36:19;102001.25;;;8.25;84.56
26443;BME280;5563;52.296;6.806;2023-02-16T15:39:05;101999.38;;;8.27;84.33
26443;BME280;5563;52.296;6.806;2023-02-16T15:41:45;101996.31;;;8.34;84.56
26443;BME280;5563;52.296;6.806;2023-02-16T15:44:31;101994.59;;;8.33;84.53
26443;BME280;5563;52.296;6.806;2023-02-16T15:47:23;101989.03;;;8.38;84.41
26443;BME280;5563;52.296;6.806;2023-02-16T15:49:52;101996.13;;;8.37;84.49
26443;BME280;5563;52.296;6.806;2023-02-16T15:52:32;102003.19;;;8.38;84.32
26443;BME280;5563;52.296;6.806;2023-02-16T15:55:10;101991.50;;;8.41;84.31
26443;BME280;5563;52.296;6.806;2023-02-16T15:57:44;101991.47;;;8.42;84.41
26443;BME280;5563;52.296;6.806;2023-02-16T16:00:20;101995.03;;;8.41;84.41
26443;BME280;5563;52.296;6.806;2023-02-16T16:06:20;101996.78;;;8.42;84.68
26443;BME280;5563;52.296;6.806;2023-02-16T16:08:47;101991.38;;;8.44;84.54
26443;BME280;5563;52.296;6.806;2023-02-16T16:11:29;101986.97;;;8.43;84.43
26443;BME280;5563;52.296;6.806;2023-02-16T16:13:55;101990.50;;;8.43;84.50
26443;BME280;5563;52.296;6.806;2023-02-16T16:16:29;101987.06;;;8.41;84.72
26443;BME280;5563;52.296;6.806;2023-02-16T16:19:33;101987.84;;;8.43;84.18
26443;BME280;5563;52.296;6.806;2023-02-16T16:25:29;101980.75;;;8.44;84.69
26443;BME280;5563;52.296;6.806;2023-02-16T16:28:00;101961.44;;;8.40;84.64
26443;BME280;5563;52.296;6.806;2023-02-16T16:30:36;101972.69;;;8.45;84.61
26443;BME280;5563;52.296;6.806;2023-02-16T16:33:15;101977.03;;;8.46;84.17
26443;BME280;5563;52.296;6.806;2023-02-16T16:35:47;101965.56;;;8.46;84.16
26443;BME280;5563;52.296;6.806;2023-02-16T16:38:41;101957.75;;;8.43;84.49
26443;BME280;5563;52.296;6.806;2023-02-16T16:41:24;101950.72;;;8.42;84.02
26443;BME280;5563;52.296;6.806;2023-02-16T16:43:59;101962.91;;;8.46;84.31
26443;BME280;5563;52.296;6.806;2023-02-16T16:46:38;101964.53;;;8.48;84.17